Time,TemperatureF,DewpointF,PressureIn,WindDirection,WindDirectionDegrees,WindSpeedMPH,WindSpeedGustMPH,Humidity,HourlyPrecipIn,Conditions,Clouds,dailyrainin,SoftwareType,DateUTC
2013-02-24 00:07:00,24.8,19.2,29.72,West,270,2.7,-999.0,79,-99.99,,,0.00,Acu-Link.com,2013-02-24 05:07:00,
2013-02-24 00:22:00,25.2,19.6,29.72,SW,225,2.2,-999.0,79,-99.99,,,0.00,Acu-Link.com,2013-02-24 05:22:00,
2013-02-24 00:37:00,25.3,19.7,29.72,SW,225,3.7,-999.0,79,-99.99,,,0.00,Acu-Link.com,2013-02-24 05:37:00,
2013-02-24 00:52:00,25.0,19.7,29.71,SW,225,2.7,-999.0,80,-99.99,,,0.00,Acu-Link.com,2013-02-24 05:52:00,
2013-02-24 01:07:00,24.8,19.8,29.72,SW,225,2.7,-999.0,81,-99.99,,,0.00,Acu-Link.com,2013-02-24 06:07:00,
2013-02-24 01:23:00,24.4,19.7,29.73,SW,225,3.2,-999.0,82,-99.99,,,0.00,Acu-Link.com,2013-02-24 06:23:00,
2013-02-24 01:38:00,24.3,19.6,29.73,SW,225,1.7,-999.0,82,-99.99,,,0.00,Acu-Link.com,2013-02-24 06:38:00,
2013-02-24 01:53:00,24.4,19.4,29.73,WSW,247,2.7,-999.0,81,-99.99,,,0.00,Acu-Link.com,2013-02-24 06:53:00,
2013-02-24 02:08:00,24.4,19.4,29.73,SW,225,4.2,-999.0,81,-99.99,,,0.00,Acu-Link.com,2013-02-24 07:08:00,
2013-02-24 02:23:00,24.4,19.4,29.73,WSW,247,1.7,-999.0,81,-99.99,,,0.00,Acu-Link.com,2013-02-24 07:23:00,
2013-02-24 02:39:00,24.3,19.3,29.74,SSW,202,3.7,-999.0,81,-99.99,,,0.00,Acu-Link.com,2013-02-24 07:39:00,
2013-02-24 02:54:00,24.6,19.3,29.74,WSW,247,4.2,-999.0,80,-99.99,,,0.00,Acu-Link.com,2013-02-24 07:54:00,
2013-02-24 03:09:00,24.6,19.3,29.74,South,180,4.7,-999.0,80,-99.99,,,0.00,Acu-Link.com,2013-02-24 08:09:00,
2013-02-24 03:24:00,24.8,19.5,29.75,WSW,247,9.9,-999.0,80,-99.99,,,0.00,Acu-Link.com,2013-02-24 08:24:00,
2013-02-24 03:39:00,24.8,19.8,29.74,WSW,247,2.7,-999.0,81,-99.99,,,0.00,Acu-Link.com,2013-02-24 08:39:00,
2013-02-24 03:54:00,24.6,19.6,29.74,WSW,247,3.7,-999.0,81,-99.99,,,0.00,Acu-Link.com,2013-02-24 08:54:00,
2013-02-24 04:18:00,24.6,20.2,29.75,WSW,247,2.7,-999.0,83,-99.99,,,0.00,Acu-Link.com,2013-02-24 09:18:00,
2013-02-24 04:33:00,23.9,20.6,29.74,SW,225,6.3,-999.0,87,-99.99,,,0.00,Acu-Link.com,2013-02-24 09:33:00,
2013-02-24 04:49:00,23.7,20.4,29.75,SW,225,4.7,-999.0,87,-99.99,,,0.00,Acu-Link.com,2013-02-24 09:49:00,
2013-02-24 05:04:00,23.4,20.4,29.74,West,270,3.7,-999.0,88,-99.99,,,0.00,Acu-Link.com,2013-02-24 10:04:00,
2013-02-24 05:19:00,23.2,20.2,29.75,SW,225,3.7,-999.0,88,-99.99,,,0.00,Acu-Link.com,2013-02-24 10:19:00,
2013-02-24 05:34:00,22.8,19.8,29.75,SW,225,2.7,-999.0,88,-99.99,,,0.00,Acu-Link.com,2013-02-24 10:34:00,
2013-02-24 05:49:00,23.0,19.7,29.76,WSW,247,3.2,-999.0,87,-99.99,,,0.00,Acu-Link.com,2013-02-24 10:49:00,
2013-02-24 06:05:00,23.2,19.9,29.76,SW,225,3.7,-999.0,87,-99.99,,,0.00,Acu-Link.com,2013-02-24 11:05:00,
2013-02-24 06:20:00,23.4,19.8,29.76,SW,225,4.7,-999.0,86,-99.99,,,0.00,Acu-Link.com,2013-02-24 11:20:00,
2013-02-24 06:35:00,23.5,19.7,29.77,WSW,247,3.2,-999.0,85,-99.99,,,0.00,Acu-Link.com,2013-02-24 11:35:00,
2013-02-24 06:50:00,23.5,19.7,29.77,WSW,247,3.7,-999.0,85,-99.99,,,0.00,Acu-Link.com,2013-02-24 11:50:00,
2013-02-24 07:05:00,23.9,19.8,29.78,SW,225,3.7,-999.0,84,-99.99,,,0.00,Acu-Link.com,2013-02-24 12:05:00,
2013-02-24 07:21:00,24.1,20.0,29.78,West,270,7.8,-999.0,84,-99.99,,,0.00,Acu-Link.com,2013-02-24 12:21:00,
2013-02-24 07:36:00,24.1,20.0,29.78,WSW,247,2.7,-999.0,84,-99.99,,,0.00,Acu-Link.com,2013-02-24 12:36:00,
2013-02-24 07:52:00,24.1,20.0,29.79,SW,225,3.7,-999.0,84,-99.99,,,0.00,Acu-Link.com,2013-02-24 12:52:00,
2013-02-24 08:07:00,23.9,19.8,29.79,SW,225,4.2,-999.0,84,-99.99,,,0.00,Acu-Link.com,2013-02-24 13:07:00,
2013-02-24 08:23:00,24.8,20.1,29.79,WSW,247,3.2,-999.0,82,-99.99,,,0.00,Acu-Link.com,2013-02-24 13:23:00,
2013-02-24 08:38:00,25.5,20.2,29.80,SSW,202,3.2,-999.0,80,-99.99,,,0.00,Acu-Link.com,2013-02-24 13:38:00,
2013-02-24 08:53:00,26.2,20.6,29.80,WSW,247,8.9,-999.0,79,-99.99,,,0.00,Acu-Link.com,2013-02-24 13:53:00,
2013-02-24 09:09:00,27.1,21.2,29.80,SW,225,5.8,-999.0,78,-99.99,,,0.00,Acu-Link.com,2013-02-24 14:09:00,
2013-02-24 09:24:00,28.0,22.0,29.80,WSW,247,7.3,-999.0,78,-99.99,,,0.00,Acu-Link.com,2013-02-24 14:24:00,
2013-02-24 09:39:00,29.3,22.7,29.81,South,180,5.8,-999.0,76,-99.99,,,0.00,Acu-Link.com,2013-02-24 14:39:00,
2013-02-24 09:54:00,30.0,23.1,29.81,WSW,247,6.3,-999.0,75,-99.99,,,0.00,Acu-Link.com,2013-02-24 14:54:00,
2013-02-24 10:09:00,29.8,22.9,29.80,SW,225,5.8,-999.0,75,-99.99,,,0.00,Acu-Link.com,2013-02-24 15:09:00,
2013-02-24 10:24:00,30.6,23.6,29.81,SW,225,10.4,-999.0,75,-99.99,,,0.00,Acu-Link.com,2013-02-24 15:24:00,
2013-02-24 10:39:00,32.2,24.5,29.82,WSW,247,4.7,-999.0,73,-99.99,,,0.00,Acu-Link.com,2013-02-24 15:39:00,
2013-02-24 10:55:00,33.6,25.2,29.82,WSW,247,5.8,-999.0,71,-99.99,,,0.00,Acu-Link.com,2013-02-24 15:55:00,
2013-02-24 11:10:00,33.6,25.6,29.82,SW,225,5.8,-999.0,72,-99.99,,,0.00,Acu-Link.com,2013-02-24 16:10:00,
2013-02-24 11:25:00,32.5,24.8,29.82,WSW,247,7.8,-999.0,73,-99.99,,,0.00,Acu-Link.com,2013-02-24 16:25:00,
2013-02-24 11:40:00,32.0,24.7,29.83,SW,225,6.8,-999.0,74,-99.99,,,0.00,Acu-Link.com,2013-02-24 16:40:00,
2013-02-24 11:55:00,32.4,25.4,29.83,West,270,5.3,-999.0,75,-99.99,,,0.00,Acu-Link.com,2013-02-24 16:55:00,
2013-02-24 12:11:00,32.4,25.4,29.84,South,180,4.7,-999.0,75,-99.99,,,0.00,Acu-Link.com,2013-02-24 17:11:00,
2013-02-24 12:26:00,32.9,25.5,29.83,West,270,8.3,-999.0,74,-99.99,,,0.00,Acu-Link.com,2013-02-24 17:26:00,
2013-02-24 12:41:00,33.6,25.6,29.83,SW,225,8.9,-999.0,72,-99.99,,,0.00,Acu-Link.com,2013-02-24 17:41:00,
2013-02-24 12:57:00,35.1,26.3,29.83,South,180,4.7,-999.0,70,-99.99,,,0.00,Acu-Link.com,2013-02-24 17:57:00,
2013-02-24 13:12:00,35.6,26.5,29.83,WSW,247,6.3,-999.0,69,-99.99,,,0.00,Acu-Link.com,2013-02-24 18:12:00,
2013-02-24 13:27:00,36.3,26.4,29.83,SW,225,5.8,-999.0,67,-99.99,,,0.00,Acu-Link.com,2013-02-24 18:27:00,
2013-02-24 13:42:00,36.1,25.9,29.83,West,270,7.8,-999.0,66,-99.99,,,0.00,Acu-Link.com,2013-02-24 18:42:00,
2013-02-24 13:57:00,36.5,25.5,29.83,SSE,157,3.2,-999.0,64,-99.99,,,0.00,Acu-Link.com,2013-02-24 18:57:00,
2013-02-24 14:12:00,36.9,25.9,29.83,West,270,4.7,-999.0,64,-99.99,,,0.01,Acu-Link.com,2013-02-24 19:12:00,
2013-02-24 14:28:00,36.5,25.5,29.83,WSW,247,5.8,-999.0,64,-99.99,,,0.01,Acu-Link.com,2013-02-24 19:28:00,
2013-02-24 14:43:00,36.9,25.1,29.83,SSE,157,9.9,-999.0,62,-99.99,,,0.01,Acu-Link.com,2013-02-24 19:43:00,
2013-02-24 14:59:00,36.5,24.7,29.83,SSE,157,4.7,-999.0,62,-99.99,,,0.01,Acu-Link.com,2013-02-24 19:59:00,
2013-02-24 15:14:00,35.8,24.8,29.84,West,270,5.3,-999.0,64,-99.99,,,0.01,Acu-Link.com,2013-02-24 20:14:00,
2013-02-24 15:29:00,36.1,25.1,29.84,South,180,4.2,-999.0,64,-99.99,,,0.01,Acu-Link.com,2013-02-24 20:29:00,
2013-02-24 15:44:00,36.1,25.1,29.85,West,270,3.7,-999.0,64,-99.99,,,0.01,Acu-Link.com,2013-02-24 20:44:00,
2013-02-24 16:00:00,35.8,25.2,29.86,ENE,67,5.3,-999.0,65,-99.99,,,0.01,Acu-Link.com,2013-02-24 21:00:00,
2013-02-24 16:15:00,35.6,25.0,29.87,WSW,247,7.3,-999.0,65,-99.99,,,0.01,Acu-Link.com,2013-02-24 21:15:00,
2013-02-24 16:30:00,35.4,25.2,29.87,SW,225,3.2,-999.0,66,-99.99,,,0.01,Acu-Link.com,2013-02-24 21:30:00,
2013-02-24 16:46:00,35.4,25.2,29.88,SW,225,2.7,-999.0,66,-99.99,,,0.01,Acu-Link.com,2013-02-24 21:46:00,
2013-02-24 17:01:00,36.0,25.8,29.88,West,270,2.7,-999.0,66,-99.99,,,0.01,Acu-Link.com,2013-02-24 22:01:00,
2013-02-24 17:16:00,36.0,25.4,29.88,NNE,22,2.2,-999.0,65,-99.99,,,0.01,Acu-Link.com,2013-02-24 22:16:00,
2013-02-24 17:31:00,35.8,25.6,29.89,West,270,2.7,-999.0,66,-99.99,,,0.01,Acu-Link.com,2013-02-24 22:31:00,
2013-02-24 17:46:00,35.4,25.2,29.90,West,270,3.2,-999.0,66,-99.99,,,0.01,Acu-Link.com,2013-02-24 22:46:00,
2013-02-24 18:02:00,35.2,25.4,29.90,WSW,247,3.2,-999.0,67,-99.99,,,0.01,Acu-Link.com,2013-02-24 23:02:00,
2013-02-24 18:17:00,34.7,24.9,29.91,SW,225,2.2,-999.0,67,-99.99,,,0.01,Acu-Link.com,2013-02-24 23:17:00,
2013-02-24 18:32:00,34.5,25.0,29.91,West,270,3.7,-999.0,68,-99.99,,,0.01,Acu-Link.com,2013-02-24 23:32:00,
2013-02-24 18:48:00,33.8,25.1,29.92,West,270,1.7,-999.0,70,-99.99,,,0.01,Acu-Link.com,2013-02-24 23:48:00,
2013-02-24 19:03:00,33.8,25.4,29.92,West,270,2.7,-999.0,71,-99.99,,,0.01,Acu-Link.com,2013-02-25 00:03:00,
2013-02-24 19:18:00,33.4,25.0,29.93,SW,225,1.7,-999.0,71,-99.99,,,0.01,Acu-Link.com,2013-02-25 00:18:00,
2013-02-24 19:33:00,32.9,24.9,29.94,SW,225,0.0,-999.0,72,-99.99,,,0.01,Acu-Link.com,2013-02-25 00:33:00,
2013-02-24 19:49:00,32.0,24.7,29.94,SW,225,0.0,-999.0,74,-99.99,,,0.01,Acu-Link.com,2013-02-25 00:49:00,
2013-02-24 20:04:00,31.8,25.1,29.94,WSW,247,0.0,-999.0,76,-99.99,,,0.01,Acu-Link.com,2013-02-25 01:04:00,
2013-02-24 20:19:00,31.8,25.7,29.95,WSW,247,1.7,-999.0,78,-99.99,,,0.01,Acu-Link.com,2013-02-25 01:19:00,
2013-02-24 20:34:00,31.1,25.7,29.95,SW,225,0.0,-999.0,80,-99.99,,,0.01,Acu-Link.com,2013-02-25 01:34:00,
2013-02-24 20:50:00,29.7,24.6,29.95,East,90,0.0,-999.0,81,-99.99,,,0.01,Acu-Link.com,2013-02-25 01:50:00,
2013-02-24 21:05:00,28.4,23.9,29.95,South,180,0.0,-999.0,83,-99.99,,,0.01,Acu-Link.com,2013-02-25 02:05:00,
2013-02-24 21:21:00,27.5,23.3,29.95,South,180,0.0,-999.0,84,-99.99,,,0.01,Acu-Link.com,2013-02-25 02:21:00,
2013-02-24 21:36:00,26.4,22.2,29.95,South,180,0.0,-999.0,84,-99.99,,,0.01,Acu-Link.com,2013-02-25 02:36:00,
2013-02-24 21:51:00,25.5,21.6,29.95,South,180,0.0,-999.0,85,-99.99,,,0.01,Acu-Link.com,2013-02-25 02:51:00,
2013-02-24 22:07:00,24.8,22.6,29.96,WSW,247,1.1,-999.0,91,-99.99,,,0.01,Acu-Link.com,2013-02-25 03:07:00,
2013-02-24 22:22:00,25.3,23.8,29.96,WSW,247,0.0,-999.0,94,-99.99,,,0.01,Acu-Link.com,2013-02-25 03:22:00,
2013-02-24 22:37:00,25.3,23.8,29.96,WSW,247,0.0,-999.0,94,-99.99,,,0.01,Acu-Link.com,2013-02-25 03:37:00,
2013-02-24 22:52:00,25.7,24.2,29.96,SW,225,1.7,-999.0,94,-99.99,,,0.01,Acu-Link.com,2013-02-25 03:52:00,
2013-02-24 23:08:00,26.1,24.6,29.96,WSW,247,1.7,-999.0,94,-99.99,,,0.01,Acu-Link.com,2013-02-25 04:08:00,
2013-02-24 23:23:00,26.4,24.9,29.96,West,270,0.0,-999.0,94,-99.99,,,0.01,Acu-Link.com,2013-02-25 04:23:00,
2013-02-24 23:38:00,25.7,23.7,29.96,SW,225,0.0,-999.0,92,-99.99,,,0.01,Acu-Link.com,2013-02-25 04:38:00,
2013-02-24 23:54:00,25.0,22.8,29.96,SW,225,0.0,-999.0,91,-99.99,,,0.01,Acu-Link.com,2013-02-25 04:54:00,